sensor_id;sensor_type;location;lat;lon;timestamp;P1;durP1;ratioP1;P2;durP2;ratioP2
61756;SDS011;57225;61.460;24.060;2022-08-20T00:01:14;10.60;;;7.97;;
61756;SDS011;57225;61.460;24.060;2022-08-20T00:03:58;13.88;;;7.57;;
61756;SDS011;57225;61.460;24.060;2022-08-20T00:06:44;12.93;;;7.97;;
61756;SDS011;57225;61.460;24.060;2022-08-20T00:12:17;16.30;;;7.93;;
61756;SDS011;57225;61.460;24.060;2022-08-20T00:15:03;14.60;;;7.97;;
61756;SDS011;57225;61.460;24.060;2022-08-20T00:17:49;13.48;;;7.45;;
61756;SDS011;57225;61.460;24.060;2022-08-20T00:20:40;13.98;;;7.60;;
61756;SDS011;57225;61.460;24.060;2022-08-20T00:23:26;14.93;;;7.70;;
61756;SDS011;57225;61.460;24.060;2022-08-20T00:26:11;16.90;;;8.07;;
61756;SDS011;57225;61.460;24.060;2022-08-20T00:28:56;15.65;;;8.20;;
61756;SDS011;57225;61.460;24.060;2022-08-20T00:31:41;14.38;;;7.50;;
61756;SDS011;57225;61.460;24.060;2022-08-20T00:34:25;13.63;;;8.07;;
61756;SDS011;57225;61.460;24.060;2022-08-20T00:37:09;13.65;;;7.88;;
61756;SDS011;57225;61.460;24.060;2022-08-20T00:39:53;15.07;;;8.02;;
61756;SDS011;57225;61.460;24.060;2022-08-20T00:42:43;9.82;;;7.00;;
61756;SDS011;57225;61.460;24.060;2022-08-20T00:45:29;13.32;;;8.25;;
61756;SDS011;57225;61.460;24.060;2022-08-20T00:48:13;14.52;;;7.47;;
61756;SDS011;57225;61.460;24.060;2022-08-20T00:51:01;18.05;;;7.78;;
61756;SDS011;57225;61.460;24.060;2022-08-20T00:53:49;13.00;;;7.20;;
61756;SDS011;57225;61.460;24.060;2022-08-20T00:56:33;14.45;;;7.30;;
61756;SDS011;57225;61.460;24.060;2022-08-20T00:59:19;12.38;;;7.43;;
61756;SDS011;57225;61.460;24.060;2022-08-20T01:02:08;12.98;;;7.50;;
61756;SDS011;57225;61.460;24.060;2022-08-20T01:04:55;12.00;;;7.40;;
61756;SDS011;57225;61.460;24.060;2022-08-20T01:07:40;15.75;;;7.60;;
61756;SDS011;57225;61.460;24.060;2022-08-20T01:10:27;12.38;;;6.90;;
61756;SDS011;57225;61.460;24.060;2022-08-20T01:13:18;13.60;;;7.10;;
61756;SDS011;57225;61.460;24.060;2022-08-20T01:16:11;14.07;;;7.03;;
61756;SDS011;57225;61.460;24.060;2022-08-20T01:19:02;11.93;;;7.40;;
61756;SDS011;57225;61.460;24.060;2022-08-20T01:21:47;13.55;;;7.35;;
61756;SDS011;57225;61.460;24.060;2022-08-20T01:24:35;11.20;;;7.25;;
61756;SDS011;57225;61.460;24.060;2022-08-20T01:27:24;13.05;;;7.30;;
61756;SDS011;57225;61.460;24.060;2022-08-20T01:30:09;19.35;;;7.47;;
61756;SDS011;57225;61.460;24.060;2022-08-20T01:32:54;17.00;;;8.25;;
61756;SDS011;57225;61.460;24.060;2022-08-20T01:35:39;12.68;;;7.32;;
61756;SDS011;57225;61.460;24.060;2022-08-20T01:38:26;13.95;;;7.88;;
61756;SDS011;57225;61.460;24.060;2022-08-20T01:44:05;14.85;;;7.53;;
61756;SDS011;57225;61.460;24.060;2022-08-20T01:46:50;10.10;;;6.60;;
61756;SDS011;57225;61.460;24.060;2022-08-20T01:49:39;11.07;;;7.18;;
61756;SDS011;57225;61.460;24.060;2022-08-20T01:52:51;12.25;;;6.95;;
61756;SDS011;57225;61.460;24.060;2022-08-20T01:55:41;12.73;;;7.13;;
61756;SDS011;57225;61.460;24.060;2022-08-20T01:58:26;10.43;;;7.22;;
61756;SDS011;57225;61.460;24.060;2022-08-20T02:01:19;11.00;;;6.97;;
61756;SDS011;57225;61.460;24.060;2022-08-20T02:04:07;12.75;;;6.75;;
61756;SDS011;57225;61.460;24.060;2022-08-20T02:06:54;17.50;;;6.53;;
61756;SDS011;57225;61.460;24.060;2022-08-20T02:09:41;17.08;;;7.57;;
61756;SDS011;57225;61.460;24.060;2022-08-20T02:12:26;12.25;;;6.65;;
61756;SDS011;57225;61.460;24.060;2022-08-20T02:15:10;15.40;;;6.68;;
61756;SDS011;57225;61.460;24.060;2022-08-20T02:17:56;13.02;;;6.57;;
61756;SDS011;57225;61.460;24.060;2022-08-20T02:20:41;10.18;;;6.13;;
61756;SDS011;57225;61.460;24.060;2022-08-20T02:23:26;11.40;;;6.60;;
61756;SDS011;57225;61.460;24.060;2022-08-20T02:26:11;12.57;;;6.70;;
61756;SDS011;57225;61.460;24.060;2022-08-20T02:28:55;16.10;;;6.50;;
61756;SDS011;57225;61.460;24.060;2022-08-20T02:31:40;8.93;;;6.38;;
61756;SDS011;57225;61.460;24.060;2022-08-20T02:34:27;10.82;;;6.38;;
61756;SDS011;57225;61.460;24.060;2022-08-20T02:37:11;11.18;;;6.07;;
61756;SDS011;57225;61.460;24.060;2022-08-20T02:40:02;13.63;;;6.03;;
61756;SDS011;57225;61.460;24.060;2022-08-20T02:42:47;13.48;;;5.93;;
61756;SDS011;57225;61.460;24.060;2022-08-20T02:45:32;8.65;;;5.72;;
61756;SDS011;57225;61.460;24.060;2022-08-20T02:48:26;10.38;;;6.40;;
61756;SDS011;57225;61.460;24.060;2022-08-20T02:51:11;12.30;;;6.15;;
61756;SDS011;57225;61.460;24.060;2022-08-20T02:53:55;8.68;;;5.57;;
61756;SDS011;57225;61.460;24.060;2022-08-20T02:56:40;14.02;;;5.63;;
61756;SDS011;57225;61.460;24.060;2022-08-20T02:59:24;11.63;;;5.90;;
61756;SDS011;57225;61.460;24.060;2022-08-20T03:02:08;11.38;;;5.90;;
61756;SDS011;57225;61.460;24.060;2022-08-20T03:04:53;9.35;;;5.63;;
61756;SDS011;57225;61.460;24.060;2022-08-20T03:07:43;15.52;;;5.38;;
61756;SDS011;57225;61.460;24.060;2022-08-20T03:10:30;15.23;;;6.05;;
61756;SDS011;57225;61.460;24.060;2022-08-20T03:13:18;12.90;;;5.68;;
61756;SDS011;57225;61.460;24.060;2022-08-20T03:16:03;12.95;;;5.65;;
61756;SDS011;57225;61.460;24.060;2022-08-20T03:18:48;8.32;;;5.70;;
61756;SDS011;57225;61.460;24.060;2022-08-20T03:21:32;15.93;;;5.63;;
61756;SDS011;57225;61.460;24.060;2022-08-20T03:24:18;8.55;;;5.63;;
61756;SDS011;57225;61.460;24.060;2022-08-20T03:27:02;11.82;;;5.55;;
61756;SDS011;57225;61.460;24.060;2022-08-20T03:29:47;11.38;;;5.35;;
61756;SDS011;57225;61.460;24.060;2022-08-20T03:32:31;8.85;;;5.22;;
61756;SDS011;57225;61.460;24.060;2022-08-20T03:35:16;11.13;;;5.20;;
61756;SDS011;57225;61.460;24.060;2022-08-20T03:38:08;10.48;;;5.05;;
61756;SDS011;57225;61.460;24.060;2022-08-20T03:40:53;16.27;;;5.28;;
61756;SDS011;57225;61.460;24.060;2022-08-20T03:43:38;7.25;;;5.05;;
61756;SDS011;57225;61.460;24.060;2022-08-20T03:46:24;12.13;;;5.75;;
61756;SDS011;57225;61.460;24.060;2022-08-20T03:49:08;12.13;;;5.15;;
61756;SDS011;57225;61.460;24.060;2022-08-20T03:51:52;11.07;;;5.43;;
61756;SDS011;57225;61.460;24.060;2022-08-20T03:54:36;14.93;;;5.50;;
61756;SDS011;57225;61.460;24.060;2022-08-20T03:57:21;12.88;;;5.47;;
61756;SDS011;57225;61.460;24.060;2022-08-20T04:00:06;13.52;;;5.22;;
61756;SDS011;57225;61.460;24.060;2022-08-20T04:02:50;10.60;;;4.95;;
61756;SDS011;57225;61.460;24.060;2022-08-20T04:05:35;7.20;;;4.75;;
61756;SDS011;57225;61.460;24.060;2022-08-20T04:11:10;18.23;;;5.32;;
61756;SDS011;57225;61.460;24.060;2022-08-20T04:13:54;13.88;;;4.95;;
61756;SDS011;57225;61.460;24.060;2022-08-20T04:16:38;9.98;;;5.05;;
61756;SDS011;57225;61.460;24.060;2022-08-20T04:19:23;9.07;;;4.63;;
61756;SDS011;57225;61.460;24.060;2022-08-20T04:22:06;13.60;;;5.03;;
61756;SDS011;57225;61.460;24.060;2022-08-20T04:24:51;9.50;;;4.45;;
61756;SDS011;57225;61.460;24.060;2022-08-20T04:27:36;8.00;;;4.63;;
61756;SDS011;57225;61.460;24.060;2022-08-20T04:30:21;12.60;;;4.80;;
61756;SDS011;57225;61.460;24.060;2022-08-20T04:33:06;9.80;;;4.47;;
61756;SDS011;57225;61.460;24.060;2022-08-20T04:35:50;14.43;;;5.32;;
61756;SDS011;57225;61.460;24.060;2022-08-20T04:38:36;13.75;;;4.63;;
61756;SDS011;57225;61.460;24.060;2022-08-20T04:41:21;10.98;;;4.53;;
61756;SDS011;57225;61.460;24.060;2022-08-20T04:44:06;11.50;;;4.72;;
61756;SDS011;57225;61.460;24.060;2022-08-20T04:46:51;10.93;;;4.65;;
61756;SDS011;57225;61.460;24.060;2022-08-20T04:49:36;16.17;;;4.78;;
61756;SDS011;57225;61.460;24.060;2022-08-20T04:52:21;10.00;;;4.57;;
61756;SDS011;57225;61.460;24.060;2022-08-20T04:55:05;8.27;;;4.32;;
61756;SDS011;57225;61.460;24.060;2022-08-20T04:57:50;10.40;;;4.13;;
61756;SDS011;57225;61.460;24.060;2022-08-20T05:00:35;13.30;;;4.13;;
61756;SDS011;57225;61.460;24.060;2022-08-20T05:03:22;11.15;;;3.88;;
61756;SDS011;57225;61.460;24.060;2022-08-20T05:06:07;14.82;;;4.50;;
61756;SDS011;57225;61.460;24.060;2022-08-20T05:08:54;12.63;;;3.85;;
61756;SDS011;57225;61.460;24.060;2022-08-20T05:11:41;10.48;;;4.10;;
61756;SDS011;57225;61.460;24.060;2022-08-20T05:14:25;11.85;;;4.13;;
61756;SDS011;57225;61.460;24.060;2022-08-20T05:17:10;9.93;;;3.95;;
61756;SDS011;57225;61.460;24.060;2022-08-20T05:19:57;14.38;;;4.00;;
61756;SDS011;57225;61.460;24.060;2022-08-20T05:22:44;9.95;;;3.55;;
61756;SDS011;57225;61.460;24.060;2022-08-20T05:25:29;11.57;;;3.60;;
61756;SDS011;57225;61.460;24.060;2022-08-20T05:28:18;11.45;;;4.00;;
61756;SDS011;57225;61.460;24.060;2022-08-20T05:31:06;13.15;;;3.72;;
61756;SDS011;57225;61.460;24.060;2022-08-20T05:33:52;10.07;;;3.70;;
61756;SDS011;57225;61.460;24.060;2022-08-20T05:36:40;14.45;;;4.47;;
61756;SDS011;57225;61.460;24.060;2022-08-20T05:39:27;8.35;;;3.90;;
61756;SDS011;57225;61.460;24.060;2022-08-20T05:42:12;12.75;;;3.95;;
61756;SDS011;57225;61.460;24.060;2022-08-20T05:44:56;13.00;;;3.90;;
61756;SDS011;57225;61.460;24.060;2022-08-20T05:47:41;10.18;;;4.00;;
61756;SDS011;57225;61.460;24.060;2022-08-20T05:50:26;13.68;;;3.95;;
61756;SDS011;57225;61.460;24.060;2022-08-20T05:53:10;12.90;;;4.22;;
61756;SDS011;57225;61.460;24.060;2022-08-20T05:55:54;13.30;;;3.88;;
61756;SDS011;57225;61.460;24.060;2022-08-20T05:58:39;9.15;;;4.30;;
61756;SDS011;57225;61.460;24.060;2022-08-20T06:01:23;9.45;;;4.10;;
61756;SDS011;57225;61.460;24.060;2022-08-20T06:04:07;9.75;;;4.32;;
61756;SDS011;57225;61.460;24.060;2022-08-20T06:07:09;15.43;;;4.35;;
61756;SDS011;57225;61.460;24.060;2022-08-20T06:09:53;11.13;;;4.20;;
61756;SDS011;57225;61.460;24.060;2022-08-20T06:12:38;12.60;;;4.25;;
61756;SDS011;57225;61.460;24.060;2022-08-20T06:15:22;15.85;;;3.97;;
61756;SDS011;57225;61.460;24.060;2022-08-20T06:18:07;13.23;;;4.30;;
61756;SDS011;57225;61.460;24.060;2022-08-20T06:20:53;11.60;;;3.75;;
61756;SDS011;57225;61.460;24.060;2022-08-20T06:23:37;10.25;;;4.15;;
61756;SDS011;57225;61.460;24.060;2022-08-20T06:26:22;9.05;;;3.97;;
61756;SDS011;57225;61.460;24.060;2022-08-20T06:29:06;14.95;;;4.35;;
61756;SDS011;57225;61.460;24.060;2022-08-20T06:31:50;7.80;;;4.10;;
61756;SDS011;57225;61.460;24.060;2022-08-20T06:34:35;13.07;;;3.85;;
61756;SDS011;57225;61.460;24.060;2022-08-20T06:37:23;8.73;;;3.78;;
61756;SDS011;57225;61.460;24.060;2022-08-20T06:40:11;15.80;;;3.88;;
61756;SDS011;57225;61.460;24.060;2022-08-20T06:42:59;11.13;;;3.90;;
61756;SDS011;57225;61.460;24.060;2022-08-20T06:45:44;8.75;;;3.35;;
61756;SDS011;57225;61.460;24.060;2022-08-20T06:48:28;23.27;;;4.03;;
61756;SDS011;57225;61.460;24.060;2022-08-20T06:51:13;14.80;;;3.58;;
61756;SDS011;57225;61.460;24.060;2022-08-20T06:53:57;11.18;;;3.60;;
61756;SDS011;57225;61.460;24.060;2022-08-20T06:56:41;9.95;;;3.55;;
61756;SDS011;57225;61.460;24.060;2022-08-20T06:59:26;13.30;;;3.83;;
61756;SDS011;57225;61.460;24.060;2022-08-20T07:02:11;9.85;;;3.08;;
61756;SDS011;57225;61.460;24.060;2022-08-20T07:04:56;10.07;;;3.30;;
61756;SDS011;57225;61.460;24.060;2022-08-20T07:07:43;10.27;;;3.17;;
61756;SDS011;57225;61.460;24.060;2022-08-20T07:10:29;12.43;;;4.00;;
61756;SDS011;57225;61.460;24.060;2022-08-20T07:13:14;8.50;;;3.45;;
61756;SDS011;57225;61.460;24.060;2022-08-20T07:15:59;6.55;;;3.17;;
61756;SDS011;57225;61.460;24.060;2022-08-20T07:18:42;17.23;;;3.42;;
61756;SDS011;57225;61.460;24.060;2022-08-20T07:21:27;11.88;;;3.45;;
61756;SDS011;57225;61.460;24.060;2022-08-20T07:24:12;8.50;;;3.40;;
61756;SDS011;57225;61.460;24.060;2022-08-20T07:26:57;8.95;;;3.20;;
61756;SDS011;57225;61.460;24.060;2022-08-20T07:29:41;10.90;;;3.22;;
61756;SDS011;57225;61.460;24.060;2022-08-20T07:32:45;11.65;;;3.50;;
61756;SDS011;57225;61.460;24.060;2022-08-20T07:35:30;9.15;;;3.75;;
61756;SDS011;57225;61.460;24.060;2022-08-20T07:38:15;11.75;;;3.17;;
61756;SDS011;57225;61.460;24.060;2022-08-20T07:41:09;9.00;;;4.00;;
61756;SDS011;57225;61.460;24.060;2022-08-20T07:43:55;8.60;;;3.25;;
61756;SDS011;57225;61.460;24.060;2022-08-20T07:46:40;13.52;;;3.15;;
61756;SDS011;57225;61.460;24.060;2022-08-20T07:49:24;9.23;;;3.40;;
61756;SDS011;57225;61.460;24.060;2022-08-20T07:52:09;10.75;;;2.92;;
61756;SDS011;57225;61.460;24.060;2022-08-20T07:54:53;8.75;;;2.88;;
61756;SDS011;57225;61.460;24.060;2022-08-20T07:57:39;10.90;;;3.33;;
61756;SDS011;57225;61.460;24.060;2022-08-20T08:00:26;8.73;;;3.10;;
61756;SDS011;57225;61.460;24.060;2022-08-20T08:03:10;11.73;;;2.90;;
61756;SDS011;57225;61.460;24.060;2022-08-20T08:05:55;5.80;;;3.08;;
61756;SDS011;57225;61.460;24.060;2022-08-20T08:08:40;12.60;;;3.38;;
61756;SDS011;57225;61.460;24.060;2022-08-20T08:11:24;12.32;;;3.35;;
61756;SDS011;57225;61.460;24.060;2022-08-20T08:14:09;12.68;;;3.53;;
61756;SDS011;57225;61.460;24.060;2022-08-20T08:16:56;10.27;;;3.35;;
61756;SDS011;57225;61.460;24.060;2022-08-20T08:19:43;9.73;;;2.90;;
61756;SDS011;57225;61.460;24.060;2022-08-20T08:22:31;5.75;;;2.85;;
61756;SDS011;57225;61.460;24.060;2022-08-20T08:25:16;12.52;;;3.20;;
61756;SDS011;57225;61.460;24.060;2022-08-20T08:28:00;9.95;;;2.95;;
61756;SDS011;57225;61.460;24.060;2022-08-20T08:30:46;10.55;;;3.10;;
61756;SDS011;57225;61.460;24.060;2022-08-20T08:33:32;7.93;;;3.13;;
61756;SDS011;57225;61.460;24.060;2022-08-20T08:36:17;12.35;;;3.33;;
61756;SDS011;57225;61.460;24.060;2022-08-20T08:39:01;11.63;;;3.10;;
61756;SDS011;57225;61.460;24.060;2022-08-20T08:41:47;11.00;;;3.42;;
61756;SDS011;57225;61.460;24.060;2022-08-20T08:44:35;7.72;;;2.95;;
61756;SDS011;57225;61.460;24.060;2022-08-20T08:47:27;14.95;;;3.10;;
61756;SDS011;57225;61.460;24.060;2022-08-20T08:50:23;6.43;;;3.05;;
61756;SDS011;57225;61.460;24.060;2022-08-20T08:53:20;8.57;;;3.20;;
61756;SDS011;57225;61.460;24.060;2022-08-20T08:56:08;5.40;;;3.20;;
61756;SDS011;57225;61.460;24.060;2022-08-20T08:58:54;10.10;;;3.50;;
61756;SDS011;57225;61.460;24.060;2022-08-20T09:01:46;12.38;;;3.50;;
61756;SDS011;57225;61.460;24.060;2022-08-20T09:04:37;6.93;;;3.00;;
61756;SDS011;57225;61.460;24.060;2022-08-20T09:07:23;7.97;;;3.35;;
61756;SDS011;57225;61.460;24.060;2022-08-20T09:10:11;9.13;;;2.97;;
61756;SDS011;57225;61.460;24.060;2022-08-20T09:12:55;8.55;;;3.00;;
61756;SDS011;57225;61.460;24.060;2022-08-20T09:15:40;8.27;;;3.63;;
61756;SDS011;57225;61.460;24.060;2022-08-20T09:18:25;10.02;;;3.13;;
61756;SDS011;57225;61.460;24.060;2022-08-20T09:21:10;7.95;;;3.50;;
61756;SDS011;57225;61.460;24.060;2022-08-20T09:23:54;8.98;;;2.90;;
61756;SDS011;57225;61.460;24.060;2022-08-20T09:26:39;9.20;;;3.30;;
61756;SDS011;57225;61.460;24.060;2022-08-20T09:29:23;10.50;;;3.08;;
61756;SDS011;57225;61.460;24.060;2022-08-20T09:32:19;17.38;;;3.58;;
61756;SDS011;57225;61.460;24.060;2022-08-20T09:35:05;6.50;;;2.92;;
61756;SDS011;57225;61.460;24.060;2022-08-20T09:37:49;14.05;;;3.10;;
61756;SDS011;57225;61.460;24.060;2022-08-20T09:40:35;10.02;;;3.20;;
61756;SDS011;57225;61.460;24.060;2022-08-20T09:43:19;8.85;;;3.00;;
61756;SDS011;57225;61.460;24.060;2022-08-20T09:46:04;10.80;;;3.30;;
61756;SDS011;57225;61.460;24.060;2022-08-20T09:48:48;16.30;;;2.92;;
61756;SDS011;57225;61.460;24.060;2022-08-20T09:51:33;5.45;;;2.50;;
61756;SDS011;57225;61.460;24.060;2022-08-20T09:54:17;10.32;;;3.20;;
61756;SDS011;57225;61.460;24.060;2022-08-20T09:57:03;7.68;;;2.80;;
61756;SDS011;57225;61.460;24.060;2022-08-20T09:59:58;8.68;;;3.00;;
61756;SDS011;57225;61.460;24.060;2022-08-20T10:02:46;9.30;;;3.20;;
61756;SDS011;57225;61.460;24.060;2022-08-20T10:05:30;8.57;;;3.03;;
61756;SDS011;57225;61.460;24.060;2022-08-20T10:08:15;6.20;;;3.15;;
61756;SDS011;57225;61.460;24.060;2022-08-20T10:10:59;15.05;;;3.83;;
61756;SDS011;57225;61.460;24.060;2022-08-20T10:13:44;12.50;;;2.90;;
61756;SDS011;57225;61.460;24.060;2022-08-20T10:16:28;10.10;;;2.88;;
61756;SDS011;57225;61.460;24.060;2022-08-20T10:19:13;15.55;;;2.90;;
61756;SDS011;57225;61.460;24.060;2022-08-20T10:21:57;10.13;;;3.10;;
61756;SDS011;57225;61.460;24.060;2022-08-20T10:24:42;9.00;;;3.25;;
61756;SDS011;57225;61.460;24.060;2022-08-20T10:27:26;6.25;;;2.70;;
61756;SDS011;57225;61.460;24.060;2022-08-20T10:30:10;5.97;;;2.92;;
61756;SDS011;57225;61.460;24.060;2022-08-20T10:32:55;6.07;;;2.58;;
61756;SDS011;57225;61.460;24.060;2022-08-20T10:35:39;9.38;;;2.92;;
61756;SDS011;57225;61.460;24.060;2022-08-20T10:38:26;9.88;;;2.80;;
61756;SDS011;57225;61.460;24.060;2022-08-20T10:41:10;10.10;;;3.10;;
61756;SDS011;57225;61.460;24.060;2022-08-20T10:43:55;7.90;;;3.00;;
61756;SDS011;57225;61.460;24.060;2022-08-20T10:46:39;12.75;;;3.15;;
61756;SDS011;57225;61.460;24.060;2022-08-20T10:49:23;7.25;;;2.70;;
61756;SDS011;57225;61.460;24.060;2022-08-20T10:52:07;14.38;;;2.53;;
61756;SDS011;57225;61.460;24.060;2022-08-20T10:54:52;6.40;;;2.60;;
61756;SDS011;57225;61.460;24.060;2022-08-20T10:57:37;9.00;;;2.17;;
61756;SDS011;57225;61.460;24.060;2022-08-20T11:00:22;8.27;;;2.45;;
61756;SDS011;57225;61.460;24.060;2022-08-20T11:03:07;7.13;;;2.58;;
61756;SDS011;57225;61.460;24.060;2022-08-20T11:05:53;5.03;;;2.50;;
61756;SDS011;57225;61.460;24.060;2022-08-20T11:08:37;7.28;;;2.58;;
61756;SDS011;57225;61.460;24.060;2022-08-20T11:11:22;12.93;;;2.90;;
61756;SDS011;57225;61.460;24.060;2022-08-20T11:14:06;4.38;;;2.47;;
61756;SDS011;57225;61.460;24.060;2022-08-20T11:16:51;4.78;;;2.17;;
61756;SDS011;57225;61.460;24.060;2022-08-20T11:19:40;10.77;;;2.60;;
61756;SDS011;57225;61.460;24.060;2022-08-20T11:22:25;6.00;;;2.78;;
61756;SDS011;57225;61.460;24.060;2022-08-20T11:25:11;4.20;;;2.08;;
61756;SDS011;57225;61.460;24.060;2022-08-20T11:27:55;6.75;;;2.40;;
61756;SDS011;57225;61.460;24.060;2022-08-20T11:30:40;8.65;;;2.25;;
61756;SDS011;57225;61.460;24.060;2022-08-20T11:33:28;9.82;;;2.40;;
61756;SDS011;57225;61.460;24.060;2022-08-20T11:36:12;8.85;;;2.63;;
61756;SDS011;57225;61.460;24.060;2022-08-20T11:38:57;12.73;;;2.42;;
61756;SDS011;57225;61.460;24.060;2022-08-20T11:41:42;8.25;;;2.58;;
61756;SDS011;57225;61.460;24.060;2022-08-20T11:44:26;8.73;;;2.30;;
61756;SDS011;57225;61.460;24.060;2022-08-20T11:47:27;9.63;;;2.70;;
61756;SDS011;57225;61.460;24.060;2022-08-20T11:50:14;11.68;;;3.17;;
61756;SDS011;57225;61.460;24.060;2022-08-20T11:52:59;11.52;;;2.92;;
61756;SDS011;57225;61.460;24.060;2022-08-20T11:55:44;7.47;;;2.90;;
61756;SDS011;57225;61.460;24.060;2022-08-20T11:58:28;13.63;;;3.58;;
61756;SDS011;57225;61.460;24.060;2022-08-20T12:01:13;12.73;;;3.20;;
61756;SDS011;57225;61.460;24.060;2022-08-20T12:03:57;13.02;;;3.30;;
61756;SDS011;57225;61.460;24.060;2022-08-20T12:06:41;16.80;;;3.15;;
61756;SDS011;57225;61.460;24.060;2022-08-20T12:09:26;15.88;;;3.78;;
61756;SDS011;57225;61.460;24.060;2022-08-20T12:12:13;18.40;;;3.40;;
61756;SDS011;57225;61.460;24.060;2022-08-20T12:14:58;10.38;;;3.13;;
61756;SDS011;57225;61.460;24.060;2022-08-20T12:17:43;10.13;;;3.20;;
61756;SDS011;57225;61.460;24.060;2022-08-20T12:20:27;17.00;;;4.30;;
61756;SDS011;57225;61.460;24.060;2022-08-20T12:23:12;16.52;;;3.58;;
61756;SDS011;57225;61.460;24.060;2022-08-20T12:25:56;17.40;;;3.50;;
61756;SDS011;57225;61.460;24.060;2022-08-20T12:28:45;13.25;;;3.63;;
61756;SDS011;57225;61.460;24.060;2022-08-20T12:31:29;17.45;;;4.60;;
61756;SDS011;57225;61.460;24.060;2022-08-20T12:34:13;19.50;;;4.18;;
61756;SDS011;57225;61.460;24.060;2022-08-20T12:37:01;16.17;;;4.30;;
61756;SDS011;57225;61.460;24.060;2022-08-20T12:39:49;13.00;;;4.40;;
61756;SDS011;57225;61.460;24.060;2022-08-20T12:42:34;13.75;;;4.10;;
61756;SDS011;57225;61.460;24.060;2022-08-20T12:45:19;29.70;;;4.35;;
61756;SDS011;57225;61.460;24.060;2022-08-20T12:48:05;18.85;;;4.13;;
61756;SDS011;57225;61.460;24.060;2022-08-20T12:50:54;14.00;;;4.32;;
61756;SDS011;57225;61.460;24.060;2022-08-20T12:53:38;18.83;;;4.63;;
61756;SDS011;57225;61.460;24.060;2022-08-20T12:56:22;13.60;;;4.18;;
61756;SDS011;57225;61.460;24.060;2022-08-20T12:59:07;15.40;;;4.72;;
61756;SDS011;57225;61.460;24.060;2022-08-20T13:01:51;23.88;;;4.57;;
61756;SDS011;57225;61.460;24.060;2022-08-20T13:04:36;12.45;;;4.43;;
61756;SDS011;57225;61.460;24.060;2022-08-20T13:07:21;16.25;;;4.50;;
61756;SDS011;57225;61.460;24.060;2022-08-20T13:10:05;12.85;;;4.60;;
61756;SDS011;57225;61.460;24.060;2022-08-20T13:12:51;14.20;;;4.47;;
61756;SDS011;57225;61.460;24.060;2022-08-20T13:15:36;17.92;;;3.83;;
61756;SDS011;57225;61.460;24.060;2022-08-20T13:18:21;24.02;;;5.70;;
61756;SDS011;57225;61.460;24.060;2022-08-20T13:21:05;17.40;;;4.35;;
61756;SDS011;57225;61.460;24.060;2022-08-20T13:23:50;18.23;;;4.07;;
61756;SDS011;57225;61.460;24.060;2022-08-20T13:26:34;25.23;;;3.83;;
61756;SDS011;57225;61.460;24.060;2022-08-20T13:29:19;16.77;;;4.07;;
61756;SDS011;57225;61.460;24.060;2022-08-20T13:32:04;15.50;;;3.92;;
61756;SDS011;57225;61.460;24.060;2022-08-20T13:34:49;22.33;;;4.15;;
61756;SDS011;57225;61.460;24.060;2022-08-20T13:37:33;21.63;;;4.28;;
61756;SDS011;57225;61.460;24.060;2022-08-20T13:40:18;11.77;;;3.90;;
61756;SDS011;57225;61.460;24.060;2022-08-20T13:43:02;18.52;;;4.45;;
61756;SDS011;57225;61.460;24.060;2022-08-20T13:45:47;24.88;;;4.43;;
61756;SDS011;57225;61.460;24.060;2022-08-20T13:48:31;20.75;;;4.35;;
61756;SDS011;57225;61.460;24.060;2022-08-20T13:51:16;23.77;;;4.57;;
61756;SDS011;57225;61.460;24.060;2022-08-20T13:54:00;16.45;;;4.05;;
61756;SDS011;57225;61.460;24.060;2022-08-20T13:56:44;26.73;;;5.10;;
61756;SDS011;57225;61.460;24.060;2022-08-20T13:59:28;24.80;;;5.15;;
61756;SDS011;57225;61.460;24.060;2022-08-20T14:02:13;28.77;;;5.45;;
61756;SDS011;57225;61.460;24.060;2022-08-20T14:04:58;20.50;;;5.03;;
61756;SDS011;57225;61.460;24.060;2022-08-20T14:07:43;22.13;;;5.00;;
61756;SDS011;57225;61.460;24.060;2022-08-20T14:10:28;30.20;;;5.18;;
61756;SDS011;57225;61.460;24.060;2022-08-20T14:13:15;35.65;;;5.63;;
61756;SDS011;57225;61.460;24.060;2022-08-20T14:16:00;36.60;;;5.78;;
61756;SDS011;57225;61.460;24.060;2022-08-20T14:18:45;32.30;;;5.82;;
61756;SDS011;57225;61.460;24.060;2022-08-20T14:21:29;26.88;;;5.60;;
61756;SDS011;57225;61.460;24.060;2022-08-20T14:24:14;25.90;;;5.70;;
61756;SDS011;57225;61.460;24.060;2022-08-20T14:26:58;30.77;;;6.13;;
61756;SDS011;57225;61.460;24.060;2022-08-20T14:29:44;32.25;;;6.18;;
61756;SDS011;57225;61.460;24.060;2022-08-20T14:32:29;38.42;;;6.43;;
61756;SDS011;57225;61.460;24.060;2022-08-20T14:35:13;21.77;;;5.40;;
61756;SDS011;57225;61.460;24.060;2022-08-20T14:37:58;38.30;;;6.10;;
61756;SDS011;57225;61.460;24.060;2022-08-20T14:40:42;34.35;;;5.20;;
61756;SDS011;57225;61.460;24.060;2022-08-20T14:43:27;33.00;;;5.60;;
61756;SDS011;57225;61.460;24.060;2022-08-20T14:46:12;33.60;;;5.57;;
61756;SDS011;57225;61.460;24.060;2022-08-20T14:48:56;42.40;;;5.97;;
61756;SDS011;57225;61.460;24.060;2022-08-20T14:51:40;40.60;;;5.32;;
61756;SDS011;57225;61.460;24.060;2022-08-20T14:54:25;36.10;;;5.95;;
61756;SDS011;57225;61.460;24.060;2022-08-20T14:57:10;40.22;;;5.05;;
61756;SDS011;57225;61.460;24.060;2022-08-20T14:59:54;43.20;;;6.03;;
61756;SDS011;57225;61.460;24.060;2022-08-20T15:02:39;29.15;;;5.05;;
61756;SDS011;57225;61.460;24.060;2022-08-20T15:05:23;25.15;;;4.95;;
61756;SDS011;57225;61.460;24.060;2022-08-20T15:08:08;29.90;;;4.90;;
61756;SDS011;57225;61.460;24.060;2022-08-20T15:10:52;30.52;;;5.00;;
61756;SDS011;57225;61.460;24.060;2022-08-20T15:13:37;45.15;;;5.95;;
61756;SDS011;57225;61.460;24.060;2022-08-20T15:16:21;40.15;;;5.70;;
61756;SDS011;57225;61.460;24.060;2022-08-20T15:19:06;35.45;;;5.47;;
61756;SDS011;57225;61.460;24.060;2022-08-20T15:21:50;32.63;;;5.10;;
61756;SDS011;57225;61.460;24.060;2022-08-20T15:24:34;37.20;;;5.07;;
61756;SDS011;57225;61.460;24.060;2022-08-20T15:27:22;39.55;;;5.38;;
61756;SDS011;57225;61.460;24.060;2022-08-20T15:30:18;31.02;;;5.15;;
61756;SDS011;57225;61.460;24.060;2022-08-20T15:33:05;33.10;;;5.20;;
61756;SDS011;57225;61.460;24.060;2022-08-20T15:35:50;38.35;;;5.05;;
61756;SDS011;57225;61.460;24.060;2022-08-20T15:38:35;32.00;;;4.88;;
61756;SDS011;57225;61.460;24.060;2022-08-20T15:41:19;55.97;;;5.53;;
61756;SDS011;57225;61.460;24.060;2022-08-20T15:44:04;36.00;;;4.88;;
61756;SDS011;57225;61.460;24.060;2022-08-20T15:46:48;32.47;;;4.75;;
61756;SDS011;57225;61.460;24.060;2022-08-20T15:49:32;37.35;;;5.03;;
61756;SDS011;57225;61.460;24.060;2022-08-20T15:52:19;36.45;;;4.82;;
61756;SDS011;57225;61.460;24.060;2022-08-20T15:55:04;34.53;;;5.00;;
61756;SDS011;57225;61.460;24.060;2022-08-20T15:58:02;29.17;;;4.70;;
61756;SDS011;57225;61.460;24.060;2022-08-20T16:01:08;42.47;;;5.13;;
61756;SDS011;57225;61.460;24.060;2022-08-20T16:10:33;42.75;;;5.18;;
61756;SDS011;57225;61.460;24.060;2022-08-20T16:16:23;37.17;;;4.20;;
61756;SDS011;57225;61.460;24.060;2022-08-20T16:19:39;46.95;;;4.72;;
61756;SDS011;57225;61.460;24.060;2022-08-20T16:22:31;34.85;;;4.45;;
61756;SDS011;57225;61.460;24.060;2022-08-20T16:25:16;30.27;;;4.53;;
61756;SDS011;57225;61.460;24.060;2022-08-20T16:28:17;16.05;;;3.95;;
61756;SDS011;57225;61.460;24.060;2022-08-20T16:31:11;40.92;;;5.45;;
61756;SDS011;57225;61.460;24.060;2022-08-20T16:37:33;27.40;;;5.32;;